Crotonville, New York
Current Conditions -  °F | °C
As of 3:56 PM on Monday 22 Dec 2014 (Local Time) from KHPN Reporting Station
Overcast Overcast  
Wind Chill: 37°   Ceiling: 1300
Heat Index: 42°   Visibility: 10mi
Dew Point: 37°   Wind: 9mph
Humidity: 82%   Direction: 80°E
Pressure: 30.23"   Gusts: NA
Location:  41.1949°N, 73.8307°W
Report Text: KHPN 222056Z 08008KT 10SM BKN013 OVC020 06/03 A3023 RMK AO2 SLP242 T00560028 56006
Loading
Personal Weather Stations






























Interactive Weather Map New forecast layout! Learn more

10-Day Weather Forecast

Advertisements
Track Severe Weather on mobile